Time;durP1;ratioP1;P1;durP2;ratioP2;P2;SDS_P1;SDS_P2;PMS_P1;PMS_P2;Temp;Humidity;BMP_temperature;BMP_pressure;BME280_temperature;BME280_humidity;BME280_pressure;Samples;Min_cycle;Max_cycle;Signal;HPM_P1;HPM_P2
2023/10/20 05:23:00;;;;;;;4.00;3.70;;;;;;;;;;6167433;23;20371;-70
2023/10/20 05:25:28;;;;;;;4.43;4.05;;;;;;;;;;6122865;23;20332;-71
2023/10/20 05:27:54;;;;;;;4.53;4.10;;;;;;;;;;6091079;23;20010;-71
2023/10/20 05:30:20;;;;;;;4.05;3.80;;;;;;;;;;6093319;23;20046;-70
2023/10/20 05:32:48;;;;;;;4.65;4.10;;;;;;;;;;6090492;23;20729;-72
2023/10/20 05:35:14;;;;;;;5.05;4.55;;;;;;;;;;6092147;23;20022;-72
2023/10/20 05:37:40;;;;;;;4.63;3.95;;;;;;;;;;6092431;23;20021;-72
2023/10/20 05:40:07;;;;;;;4.40;3.97;;;;;;;;;;6066214;23;20018;-72
2023/10/20 05:42:33;;;;;;;4.78;4.28;;;;;;;;;;6092483;23;20085;-71
2023/10/20 05:45:03;;;;;;;4.80;4.47;;;;;;;;;;6092012;23;20399;-71
2023/10/20 05:47:32;;;;;;;4.50;4.15;;;;;;;;;;6092699;23;20015;-69
2023/10/20 05:50:00;;;;;;;4.18;3.85;;;;;;;;;;6091357;23;20052;-73
2023/10/20 05:52:30;;;;;;;4.65;4.25;;;;;;;;;;6092750;23;20010;-71
2023/10/20 05:54:57;;;;;;;4.40;4.10;;;;;;;;;;6066576;23;20210;-71
2023/10/20 05:57:23;;;;;;;4.00;3.70;;;;;;;;;;6067055;23;20010;-72
2023/10/20 05:59:49;;;;;;;4.00;3.70;;;;;;;;;;6091626;23;20478;-70
2023/10/20 06:02:16;;;;;;;4.35;4.05;;;;;;;;;;6066712;23;20015;-70
2023/10/20 06:04:42;;;;;;;4.53;4.15;;;;;;;;;;6092119;23;20038;-70
2023/10/20 06:07:08;;;;;;;5.05;3.97;;;;;;;;;;6042377;23;20109;-70
2023/10/20 06:09:34;;;;;;;5.00;4.60;;;;;;;;;;6092092;23;20480;-71
2023/10/20 06:12:01;;;;;;;4.88;4.47;;;;;;;;;;6092081;23;20733;-73
2023/10/20 06:14:28;;;;;;;4.90;4.50;;;;;;;;;;6066353;23;20378;-72
2023/10/20 06:16:53;;;;;;;6.30;4.45;;;;;;;;;;6066261;23;20022;-71
2023/10/20 06:19:19;;;;;;;5.30;4.65;;;;;;;;;;6092130;23;20018;-72
2023/10/20 06:21:46;;;;;;;4.80;4.40;;;;;;;;;;6092657;23;20040;-72
2023/10/20 06:24:12;;;;;;;5.35;4.95;;;;;;;;;;6092099;23;20022;-70
2023/10/20 06:26:38;;;;;;;6.93;6.32;;;;;;;;;;6092005;23;20015;-69
2023/10/20 06:29:23;;;;;;;6.65;6.05;;;;;;;;;;6091926;23;20021;-71
2023/10/20 06:34:36;;;;;;;7.55;6.85;;;;;;;;;;6092042;23;20026;-71
2023/10/20 06:37:08;;;;;;;7.72;7.03;;;;;;;;;;6092754;23;20455;-71
2023/10/20 06:39:35;;;;;;;6.72;6.13;;;;;;;;;;6093944;23;20601;-74
2023/10/20 06:42:01;;;;;;;7.65;7.05;;;;;;;;;;6093719;23;20101;-73
2023/10/20 06:44:28;;;;;;;9.65;8.85;;;;;;;;;;6068208;23;20025;-71
2023/10/20 06:46:56;;;;;;;9.52;8.63;;;;;;;;;;6093961;23;20101;-72
2023/10/20 06:49:23;;;;;;;8.63;7.93;;;;;;;;;;6093382;23;20467;-71
2023/10/20 06:51:49;;;;;;;9.40;8.60;;;;;;;;;;6094062;23;20019;-71
2023/10/20 06:54:16;;;;;;;10.18;9.27;;;;;;;;;;6092923;23;20752;-72
2023/10/20 06:56:43;;;;;;;9.88;8.82;;;;;;;;;;6093139;23;20084;-73
2023/10/20 06:59:13;;;;;;;9.98;8.25;;;;;;;;;;6093725;23;20021;-71
2023/10/20 07:01:40;;;;;;;9.80;8.70;;;;;;;;;;6094928;23;20042;-70
2023/10/20 07:04:08;;;;;;;8.90;8.18;;;;;;;;;;6094478;23;20115;-71
2023/10/20 07:06:36;;;;;;;7.57;6.80;;;;;;;;;;6094059;23;20022;-71
2023/10/20 07:09:11;;;;;;;8.77;7.80;;;;;;;;;;6066650;23;20010;-72
2023/10/20 07:11:38;;;;;;;9.23;8.43;;;;;;;;;;6065959;23;20023;-72
2023/10/20 07:14:05;;;;;;;8.65;7.43;;;;;;;;;;6064259;23;20010;-72
2023/10/20 07:16:31;;;;;;;10.88;7.47;;;;;;;;;;6090292;23;20081;-72
2023/10/20 07:18:57;;;;;;;9.00;8.10;;;;;;;;;;6091143;23;20094;-72
2023/10/20 07:21:24;;;;;;;8.80;8.00;;;;;;;;;;6091216;23;20514;-72
2023/10/20 07:23:50;;;;;;;8.00;7.30;;;;;;;;;;6092152;23;20506;-72
2023/10/20 07:26:17;;;;;;;8.13;7.32;;;;;;;;;;6093339;23;20011;-72
2023/10/20 07:28:44;;;;;;;6.50;5.90;;;;;;;;;;6069860;23;20048;-72
2023/10/20 07:31:11;;;;;;;6.97;6.47;;;;;;;;;;6093202;23;20014;-71
2023/10/20 07:33:37;;;;;;;6.43;5.93;;;;;;;;;;6094670;23;20408;-71
2023/10/20 07:36:06;;;;;;;7.22;6.63;;;;;;;;;;6094680;23;20026;-71
2023/10/20 07:38:32;;;;;;;6.97;6.47;;;;;;;;;;6069160;23;20141;-71
2023/10/20 07:41:09;;;;;;;7.47;6.88;;;;;;;;;;6094401;23;20045;-71
2023/10/20 07:43:35;;;;;;;6.80;6.20;;;;;;;;;;6094587;23;20089;-73
2023/10/20 07:46:02;;;;;;;6.10;5.63;;;;;;;;;;6095934;23;20535;-71
2023/10/20 07:48:28;;;;;;;5.50;4.78;;;;;;;;;;6095582;23;20018;-72
2023/10/20 07:50:59;;;;;;;6.00;5.60;;;;;;;;;;6094732;23;20049;-72
2023/10/20 07:53:25;;;;;;;5.90;5.30;;;;;;;;;;6096136;23;20014;-73
2023/10/20 07:55:52;;;;;;;5.72;5.32;;;;;;;;;;6068587;23;20029;-72
2023/10/20 07:58:17;;;;;;;5.35;4.95;;;;;;;;;;6093809;23;20018;-72
2023/10/20 08:00:43;;;;;;;7.05;4.70;;;;;;;;;;6094214;23;20073;-72
2023/10/20 08:03:11;;;;;;;4.90;4.50;;;;;;;;;;6094216;23;20014;-71
2023/10/20 08:05:37;;;;;;;4.38;4.07;;;;;;;;;;6094300;23;20022;-71
2023/10/20 08:08:04;;;;;;;5.63;5.22;;;;;;;;;;6068722;23;20036;-72
2023/10/20 08:10:32;;;;;;;5.32;4.78;;;;;;;;;;6094249;23;20097;-71
2023/10/20 08:12:59;;;;;;;6.35;5.45;;;;;;;;;;6094212;23;20050;-72
2023/10/20 08:15:28;;;;;;;6.22;5.72;;;;;;;;;;6094169;23;20018;-72
2023/10/20 08:17:54;;;;;;;6.40;5.90;;;;;;;;;;6094308;23;20049;-72
2023/10/20 08:20:20;;;;;;;6.13;5.63;;;;;;;;;;6093960;23;20014;-71
2023/10/20 08:22:47;;;;;;;6.30;5.80;;;;;;;;;;6093695;23;20037;-72
2023/10/20 08:25:13;;;;;;;8.77;5.75;;;;;;;;;;6068174;23;20025;-72
2023/10/20 08:27:39;;;;;;;6.28;5.78;;;;;;;;;;6068581;23;20455;-71
2023/10/20 08:30:06;;;;;;;5.60;5.10;;;;;;;;;;6093792;23;20046;-71
2023/10/20 08:32:32;;;;;;;6.30;5.70;;;;;;;;;;6094679;23;20010;-72
2023/10/20 08:34:58;;;;;;;7.15;5.00;;;;;;;;;;6093884;23;20022;-71
2023/10/20 08:37:25;;;;;;;6.50;5.90;;;;;;;;;;6093613;23;20022;-72
2023/10/20 08:39:54;;;;;;;7.15;5.88;;;;;;;;;;6094521;23;20080;-72
2023/10/20 08:42:20;;;;;;;7.13;6.22;;;;;;;;;;6093923;23;20052;-71
2023/10/20 08:44:46;;;;;;;7.53;6.82;;;;;;;;;;6094359;23;20021;-72
2023/10/20 08:47:15;;;;;;;9.00;8.10;;;;;;;;;;6094240;23;20018;-72
2023/10/20 08:49:42;;;;;;;6.50;5.82;;;;;;;;;;6094390;23;20010;-72
2023/10/20 08:52:08;;;;;;;7.25;6.55;;;;;;;;;;6093939;23;20025;-71
2023/10/20 08:54:34;;;;;;;7.50;6.75;;;;;;;;;;6068627;23;20363;-70
2023/10/20 08:57:00;;;;;;;7.28;6.63;;;;;;;;;;6094417;23;20029;-71
2023/10/20 08:59:27;;;;;;;8.23;7.53;;;;;;;;;;6094292;23;20015;-71
2023/10/20 09:01:53;;;;;;;8.23;7.53;;;;;;;;;;6096512;23;20018;-71
2023/10/20 09:04:20;;;;;;;8.00;7.30;;;;;;;;;;6096051;23;20052;-71
2023/10/20 09:06:46;;;;;;;7.30;6.70;;;;;;;;;;6070171;23;20046;-72
2023/10/20 09:09:12;;;;;;;6.72;6.22;;;;;;;;;;6093654;23;20010;-72
2023/10/20 09:11:40;;;;;;;7.05;6.45;;;;;;;;;;6093550;23;20089;-71
2023/10/20 09:14:06;;;;;;;10.23;9.43;;;;;;;;;;6093470;23;20014;-71
2023/10/20 09:16:33;;;;;;;7.25;6.55;;;;;;;;;;6044198;23;20372;-73
2023/10/20 09:19:00;;;;;;;7.35;6.70;;;;;;;;;;6094143;23;20010;-72
2023/10/20 09:21:29;;;;;;;8.00;7.28;;;;;;;;;;6068007;23;20053;-71
2023/10/20 09:23:59;;;;;;;6.50;5.90;;;;;;;;;;6093469;23;20022;-72
2023/10/20 09:26:26;;;;;;;7.70;7.10;;;;;;;;;;6093127;23;20021;-72
2023/10/20 09:28:56;;;;;;;7.03;6.43;;;;;;;;;;6093353;23;20038;-72
2023/10/20 09:31:22;;;;;;;8.75;7.85;;;;;;;;;;6093053;23;20010;-71
2023/10/20 09:33:49;;;;;;;7.95;7.15;;;;;;;;;;6068242;23;20027;-71
2023/10/20 09:36:15;;;;;;;7.47;6.82;;;;;;;;;;6067814;23;20105;-72
2023/10/20 09:38:44;;;;;;;5.70;4.65;;;;;;;;;;6093424;23;20524;-72
2023/10/20 09:41:15;;;;;;;6.78;6.18;;;;;;;;;;6093011;23;20010;-71
2023/10/20 09:43:47;;;;;;;7.22;5.90;;;;;;;;;;6093563;23;20014;-71
2023/10/20 09:46:16;;;;;;;6.05;5.43;;;;;;;;;;6067898;23;20057;-71
2023/10/20 09:48:42;;;;;;;7.63;6.18;;;;;;;;;;6093218;23;20419;-71
2023/10/20 09:51:08;;;;;;;8.85;6.00;;;;;;;;;;6043723;23;20024;-72
2023/10/20 09:53:35;;;;;;;5.50;5.03;;;;;;;;;;6068509;23;20014;-72
2023/10/20 09:56:01;;;;;;;5.75;5.25;;;;;;;;;;6070342;23;20029;-71
2023/10/20 09:58:33;;;;;;;7.00;6.25;;;;;;;;;;6070202;23;20566;-72
2023/10/20 10:00:59;;;;;;;3.80;3.50;;;;;;;;;;6069634;23;20015;-73
2023/10/20 10:03:38;;;;;;;4.47;4.07;;;;;;;;;;6095809;23;20010;-71
2023/10/20 10:06:10;;;;;;;4.85;4.45;;;;;;;;;;6095197;23;20093;-71
2023/10/20 10:08:43;;;;;;;3.45;3.25;;;;;;;;;;6093744;23;20102;-72
2023/10/20 10:11:19;;;;;;;4.28;3.97;;;;;;;;;;6067524;23;20018;-72
2023/10/20 10:13:45;;;;;;;2.80;2.70;;;;;;;;;;6093290;23;20014;-72
2023/10/20 10:16:13;;;;;;;4.25;3.85;;;;;;;;;;6067644;23;20026;-71
2023/10/20 10:18:45;;;;;;;3.67;3.28;;;;;;;;;;6093138;23;20054;-70
2023/10/20 10:21:24;;;;;;;2.58;2.05;;;;;;;;;;6093484;23;20022;-71
2023/10/20 10:24:07;;;;;;;2.05;1.95;;;;;;;;;;6062829;23;20491;-71
2023/10/20 10:26:33;;;;;;;2.03;1.92;;;;;;;;;;6064103;23;20018;-70
2023/10/20 10:28:59;;;;;;;2.15;2.05;;;;;;;;;;6062815;23;20011;-72
2023/10/20 10:31:37;;;;;;;2.70;2.50;;;;;;;;;;6064557;23;20015;-71
2023/10/20 10:34:04;;;;;;;2.95;2.75;;;;;;;;;;6064728;23;20094;-71
2023/10/20 10:36:30;;;;;;;3.33;3.13;;;;;;;;;;6064005;23;20439;-71
2023/10/20 10:38:57;;;;;;;2.92;2.72;;;;;;;;;;6064396;23;20431;-71
2023/10/20 10:41:23;;;;;;;3.35;3.15;;;;;;;;;;6064044;23;20014;-71
2023/10/20 10:43:53;;;;;;;3.08;2.88;;;;;;;;;;6064286;23;20434;-71
2023/10/20 10:46:19;;;;;;;2.90;2.60;;;;;;;;;;6064252;23;20014;-73
2023/10/20 10:48:45;;;;;;;3.00;2.85;;;;;;;;;;6062954;23;20150;-71
2023/10/20 10:51:12;;;;;;;3.88;3.58;;;;;;;;;;6064085;23;20074;-71
2023/10/20 10:53:40;;;;;;;3.70;3.40;;;;;;;;;;6064508;23;20543;-71
2023/10/20 10:56:06;;;;;;;3.40;3.20;;;;;;;;;;6064180;23;20031;-71
2023/10/20 10:58:33;;;;;;;4.22;3.90;;;;;;;;;;6062795;23;20456;-71
2023/10/20 11:00:59;;;;;;;4.15;3.85;;;;;;;;;;6064417;23;20063;-71
2023/10/20 11:03:25;;;;;;;4.00;3.75;;;;;;;;;;6064193;23;20014;-71
2023/10/20 11:05:51;;;;;;;4.57;4.15;;;;;;;;;;6062723;23;20411;-71
2023/10/20 11:08:18;;;;;;;4.80;4.40;;;;;;;;;;6063801;23;20022;-71
2023/10/20 11:10:45;;;;;;;5.25;4.85;;;;;;;;;;6064418;23;20025;-71
2023/10/20 11:13:13;;;;;;;5.28;4.88;;;;;;;;;;6062964;23;20065;-71
2023/10/20 11:15:39;;;;;;;5.38;4.88;;;;;;;;;;6064748;23;20417;-70
2023/10/20 11:18:06;;;;;;;5.45;4.88;;;;;;;;;;6064167;23;20011;-71
2023/10/20 11:20:32;;;;;;;5.13;4.72;;;;;;;;;;6065082;23;20074;-70
2023/10/20 11:23:00;;;;;;;5.32;4.93;;;;;;;;;;6071519;23;20022;-71
2023/10/20 11:25:26;;;;;;;6.05;5.35;;;;;;;;;;6045387;23;20015;-71
2023/10/20 11:27:56;;;;;;;6.75;6.25;;;;;;;;;;6093884;23;20022;-71
2023/10/20 11:30:26;;;;;;;7.10;6.60;;;;;;;;;;6068097;23;20037;-71
2023/10/20 11:32:53;;;;;;;6.50;6.00;;;;;;;;;;6068680;23;20014;-71
2023/10/20 11:35:24;;;;;;;7.82;7.10;;;;;;;;;;6093769;23;20530;-71
2023/10/20 11:37:53;;;;;;;6.13;5.72;;;;;;;;;;6094140;23;20020;-71
2023/10/20 11:40:20;;;;;;;6.90;6.40;;;;;;;;;;6094011;23;20407;-71
2023/10/20 11:42:46;;;;;;;4.85;4.53;;;;;;;;;;6094562;23;20670;-71
2023/10/20 11:45:12;;;;;;;5.57;5.18;;;;;;;;;;6094634;23;20016;-73
2023/10/20 11:47:38;;;;;;;4.78;4.38;;;;;;;;;;6093944;23;20165;-72
2023/10/20 11:50:08;;;;;;;5.68;5.28;;;;;;;;;;6045278;23;20278;-72
2023/10/20 11:52:35;;;;;;;5.50;5.00;;;;;;;;;;6068568;23;20014;-71
2023/10/20 11:55:02;;;;;;;5.43;5.00;;;;;;;;;;6094249;23;20022;-71
2023/10/20 11:57:28;;;;;;;6.05;5.63;;;;;;;;;;6093901;23;20478;-71
2023/10/20 11:59:54;;;;;;;5.97;5.47;;;;;;;;;;6094234;23;20014;-71
2023/10/20 12:02:20;;;;;;;6.70;6.20;;;;;;;;;;6094027;23;20019;-71
2023/10/20 12:04:46;;;;;;;5.30;4.90;;;;;;;;;;6094208;23;20018;-71
2023/10/20 12:07:12;;;;;;;5.65;5.22;;;;;;;;;;6068626;23;20024;-71
2023/10/20 12:09:38;;;;;;;6.00;5.45;;;;;;;;;;6093973;23;20018;-71
2023/10/20 12:12:04;;;;;;;4.97;4.57;;;;;;;;;;6068652;23;20018;-71
2023/10/20 12:14:29;;;;;;;4.30;4.00;;;;;;;;;;6068582;23;20006;-71
2023/10/20 12:16:55;;;;;;;4.80;4.50;;;;;;;;;;6093945;23;20025;-71
2023/10/20 12:19:21;;;;;;;5.30;4.90;;;;;;;;;;6093837;23;20014;-71
2023/10/20 12:21:48;;;;;;;3.55;3.35;;;;;;;;;;6068253;23;20113;-72
2023/10/20 12:24:14;;;;;;;4.15;3.85;;;;;;;;;;6063699;23;20371;-71
2023/10/20 12:26:41;;;;;;;4.45;3.80;;;;;;;;;;6064825;23;20090;-72
2023/10/20 12:29:07;;;;;;;3.17;3.08;;;;;;;;;;6039858;23;20383;-71
2023/10/20 12:31:33;;;;;;;3.22;3.03;;;;;;;;;;6065362;23;20007;-71
2023/10/20 12:33:59;;;;;;;3.67;3.42;;;;;;;;;;6065242;23;20093;-71
2023/10/20 12:36:28;;;;;;;4.43;4.03;;;;;;;;;;6064629;23;20053;-71
2023/10/20 12:38:55;;;;;;;3.78;3.40;;;;;;;;;;6040051;23;20014;-71
2023/10/20 12:41:22;;;;;;;3.70;3.50;;;;;;;;;;6064878;23;20531;-71
2023/10/20 12:43:48;;;;;;;3.42;3.22;;;;;;;;;;6065119;23;20015;-72
2023/10/20 12:46:14;;;;;;;3.10;2.90;;;;;;;;;;6065373;23;20404;-72
2023/10/20 12:48:40;;;;;;;3.47;3.28;;;;;;;;;;6064807;23;20018;-71
2023/10/20 12:51:07;;;;;;;4.40;4.00;;;;;;;;;;6063393;23;20043;-71
2023/10/20 12:53:33;;;;;;;3.30;3.10;;;;;;;;;;6064592;23;20019;-72
2023/10/20 12:55:59;;;;;;;4.00;3.70;;;;;;;;;;6065078;23;20106;-71
2023/10/20 12:58:25;;;;;;;5.10;4.75;;;;;;;;;;6064964;23;20070;-72
2023/10/20 13:00:52;;;;;;;4.15;3.92;;;;;;;;;;6065159;23;20015;-71
2023/10/20 13:03:18;;;;;;;4.80;4.50;;;;;;;;;;6064665;23;20015;-71
2023/10/20 13:05:44;;;;;;;4.85;4.13;;;;;;;;;;6063740;23;20014;-71
2023/10/20 13:08:13;;;;;;;7.30;5.72;;;;;;;;;;6065349;23;20105;-71
2023/10/20 13:10:39;;;;;;;5.28;4.88;;;;;;;;;;6063790;23;20042;-70
2023/10/20 13:13:06;;;;;;;6.07;5.47;;;;;;;;;;6040211;23;20018;-72
2023/10/20 13:15:33;;;;;;;5.88;5.30;;;;;;;;;;6066003;23;20053;-71
2023/10/20 13:17:59;;;;;;;9.45;8.65;;;;;;;;;;6065984;23;20070;-71
2023/10/20 13:20:25;;;;;;;6.70;5.32;;;;;;;;;;6066255;23;20014;-71
2023/10/20 13:22:51;;;;;;;6.50;6.00;;;;;;;;;;6068011;23;20021;-71
2023/10/20 13:25:19;;;;;;;6.57;6.07;;;;;;;;;;6093784;23;20443;-72
2023/10/20 13:27:46;;;;;;;5.88;5.47;;;;;;;;;;6093401;23;20089;-71
2023/10/20 13:30:12;;;;;;;14.15;7.05;;;;;;;;;;6068142;23;20026;-71
2023/10/20 13:32:38;;;;;;;6.78;6.15;;;;;;;;;;6093101;23;20022;-71
2023/10/20 13:35:05;;;;;;;7.50;6.88;;;;;;;;;;6093090;23;20049;-72
2023/10/20 13:37:32;;;;;;;10.55;9.68;;;;;;;;;;6093037;23;20042;-71
2023/10/20 13:39:59;;;;;;;8.60;7.72;;;;;;;;;;6093341;23;20410;-70
2023/10/20 13:42:25;;;;;;;8.70;8.00;;;;;;;;;;6093413;23;20085;-72
2023/10/20 13:44:51;;;;;;;9.70;7.88;;;;;;;;;;6093042;23;20014;-71
2023/10/20 13:47:18;;;;;;;8.85;8.15;;;;;;;;;;6093098;23;20025;-71
2023/10/20 13:49:44;;;;;;;9.45;8.55;;;;;;;;;;6093624;23;20088;-71
2023/10/20 13:52:10;;;;;;;9.60;8.70;;;;;;;;;;6093557;23;20014;-71
2023/10/20 13:54:36;;;;;;;13.65;12.45;;;;;;;;;;6092692;23;20014;-71
2023/10/20 13:57:02;;;;;;;10.38;9.55;;;;;;;;;;6093007;23;20018;-71
2023/10/20 13:59:29;;;;;;;12.55;11.45;;;;;;;;;;6084316;23;20038;-71
2023/10/20 14:01:55;;;;;;;12.60;11.50;;;;;;;;;;6088881;23;20015;-71
2023/10/20 14:04:25;;;;;;;8.32;7.53;;;;;;;;;;6092376;23;20010;-72
2023/10/20 14:06:51;;;;;;;11.25;8.95;;;;;;;;;;6091250;23;20010;-70
2023/10/20 14:09:18;;;;;;;12.27;11.18;;;;;;;;;;6092328;23;20098;-72
2023/10/20 14:11:44;;;;;;;8.75;7.93;;;;;;;;;;6092247;23;20018;-71
2023/10/20 14:14:11;;;;;;;11.43;10.40;;;;;;;;;;6067846;23;20121;-70
2023/10/20 14:16:37;;;;;;;10.95;9.95;;;;;;;;;;6092755;23;20025;-70
2023/10/20 14:19:04;;;;;;;10.20;9.32;;;;;;;;;;6067309;23;20392;-69
2023/10/20 14:21:30;;;;;;;12.77;11.48;;;;;;;;;;6092687;23;20014;-70
2023/10/20 14:23:57;;;;;;;10.05;9.15;;;;;;;;;;6092874;23;20037;-71
2023/10/20 14:26:23;;;;;;;15.00;11.23;;;;;;;;;;6092364;23;20025;-71
2023/10/20 14:28:49;;;;;;;14.70;13.32;;;;;;;;;;6093054;23;20526;-70
2023/10/20 14:31:15;;;;;;;9.93;9.02;;;;;;;;;;6068078;23;20042;-71
2023/10/20 14:33:41;;;;;;;11.48;10.10;;;;;;;;;;6092561;23;20058;-70
2023/10/20 14:36:16;;;;;;;10.18;9.27;;;;;;;;;;6092958;23;20258;-70
2023/10/20 14:38:44;;;;;;;10.15;8.93;;;;;;;;;;6093545;23;20094;-70
2023/10/20 14:41:10;;;;;;;10.57;9.57;;;;;;;;;;6094228;23;20014;-70
2023/10/20 14:43:36;;;;;;;11.20;10.20;;;;;;;;;;6092786;23;20021;-70
2023/10/20 14:46:03;;;;;;;10.05;9.10;;;;;;;;;;6092712;23;20014;-70
2023/10/20 14:48:29;;;;;;;10.32;9.32;;;;;;;;;;6092644;23;20098;-70
2023/10/20 14:50:56;;;;;;;11.23;10.13;;;;;;;;;;6092872;23;20019;-70
2023/10/20 14:53:22;;;;;;;14.45;13.32;;;;;;;;;;6067353;23;20015;-71
2023/10/20 14:55:48;;;;;;;12.27;10.98;;;;;;;;;;6067279;23;20032;-70
2023/10/20 14:58:14;;;;;;;14.88;13.65;;;;;;;;;;6068382;23;20456;-71
2023/10/20 15:00:44;;;;;;;12.02;10.20;;;;;;;;;;6094629;23;20014;-70
2023/10/20 15:03:11;;;;;;;12.98;11.77;;;;;;;;;;6094756;23;20021;-69
2023/10/20 15:05:37;;;;;;;14.77;13.30;;;;;;;;;;6094534;23;20532;-70
2023/10/20 15:08:03;;;;;;;11.40;10.27;;;;;;;;;;6069212;23;20024;-69
2023/10/20 15:10:29;;;;;;;11.63;10.43;;;;;;;;;;6094530;23;20014;-70
2023/10/20 15:12:55;;;;;;;10.65;9.68;;;;;;;;;;6094874;23;20109;-70
2023/10/20 15:15:21;;;;;;;13.93;12.73;;;;;;;;;;6094855;23;20058;-70
2023/10/20 15:17:48;;;;;;;13.35;12.15;;;;;;;;;;6094426;23;20022;-70
2023/10/20 15:20:15;;;;;;;13.23;11.82;;;;;;;;;;6094634;23;20014;-71
2023/10/20 15:22:41;;;;;;;15.55;14.07;;;;;;;;;;6094287;23;20038;-70
2023/10/20 15:25:07;;;;;;;11.43;10.27;;;;;;;;;;6094787;23;20022;-70
2023/10/20 15:27:33;;;;;;;11.23;10.18;;;;;;;;;;6094231;23;20010;-70
2023/10/20 15:29:59;;;;;;;17.45;13.27;;;;;;;;;;6094567;23;20357;-69
2023/10/20 15:32:25;;;;;;;13.23;11.23;;;;;;;;;;6094393;23;20400;-70
2023/10/20 15:34:53;;;;;;;9.55;8.65;;;;;;;;;;6094454;23;20057;-71
2023/10/20 15:37:21;;;;;;;10.70;7.10;;;;;;;;;;6094615;23;20014;-70
2023/10/20 15:39:47;;;;;;;12.65;10.38;;;;;;;;;;6069170;23;20093;-70
2023/10/20 15:42:13;;;;;;;10.93;9.88;;;;;;;;;;6094314;23;20014;-70
2023/10/20 15:44:40;;;;;;;12.32;11.15;;;;;;;;;;6094445;23;20328;-70
2023/10/20 15:47:06;;;;;;;14.05;12.55;;;;;;;;;;6068815;23;20030;-69
2023/10/20 15:49:32;;;;;;;14.48;12.88;;;;;;;;;;6094229;23;20094;-70
2023/10/20 15:51:58;;;;;;;11.20;10.00;;;;;;;;;;6068979;23;20023;-70
2023/10/20 15:54:25;;;;;;;12.13;10.93;;;;;;;;;;6094204;23;20293;-69
2023/10/20 15:56:51;;;;;;;14.52;13.13;;;;;;;;;;6068778;23;20022;-69
2023/10/20 15:59:18;;;;;;;10.85;9.77;;;;;;;;;;6094481;23;20018;-69
2023/10/20 16:01:44;;;;;;;10.63;8.95;;;;;;;;;;6093682;23;20108;-70
2023/10/20 16:04:10;;;;;;;12.23;10.98;;;;;;;;;;6094157;23;20011;-68
2023/10/20 16:06:36;;;;;;;13.05;11.88;;;;;;;;;;6093960;23;20073;-68
2023/10/20 16:09:06;;;;;;;10.07;7.65;;;;;;;;;;6091433;23;20014;-69
2023/10/20 16:11:33;;;;;;;12.43;10.07;;;;;;;;;;6093142;23;20014;-69
2023/10/20 16:14:00;;;;;;;10.10;7.28;;;;;;;;;;6093345;23;20490;-69
2023/10/20 16:16:26;;;;;;;10.27;9.18;;;;;;;;;;6094265;23;20463;-69
2023/10/20 16:18:53;;;;;;;10.90;9.90;;;;;;;;;;6066360;23;20112;-68
2023/10/20 16:21:19;;;;;;;15.13;13.60;;;;;;;;;;6092736;23;20018;-69
2023/10/20 16:23:46;;;;;;;19.17;14.23;;;;;;;;;;6063305;23;20108;-69
2023/10/20 16:26:12;;;;;;;16.85;14.20;;;;;;;;;;6065152;23;20025;-68
2023/10/20 16:28:38;;;;;;;14.73;13.20;;;;;;;;;;6066542;23;20098;-68
2023/10/20 16:31:05;;;;;;;19.80;15.52;;;;;;;;;;6066986;23;20049;-68
2023/10/20 16:33:32;;;;;;;19.92;17.77;;;;;;;;;;6066943;23;20015;-68
2023/10/20 16:35:58;;;;;;;18.33;13.70;;;;;;;;;;6035338;23;20475;-69
2023/10/20 16:38:25;;;;;;;13.48;12.00;;;;;;;;;;6061713;23;20534;-68
2023/10/20 16:40:55;;;;;;;12.70;11.40;;;;;;;;;;6064697;23;20456;-67
2023/10/20 16:43:21;;;;;;;17.80;13.48;;;;;;;;;;6064382;23;20338;-67
2023/10/20 16:45:48;;;;;;;24.40;16.70;;;;;;;;;;6064989;23;20102;-68
2023/10/20 16:48:14;;;;;;;24.92;16.67;;;;;;;;;;6063313;23;20015;-68
2023/10/20 16:50:41;;;;;;;17.05;13.20;;;;;;;;;;6064083;23;20021;-68
2023/10/20 16:53:08;;;;;;;26.63;18.50;;;;;;;;;;6065849;23;20061;-68
2023/10/20 16:55:37;;;;;;;26.23;19.73;;;;;;;;;;6063994;23;20448;-68
2023/10/20 16:58:03;;;;;;;29.08;17.02;;;;;;;;;;6064144;23;20019;-67
2023/10/20 17:00:32;;;;;;;27.50;22.30;;;;;;;;;;6063589;23;20769;-68
2023/10/20 17:02:58;;;;;;;31.42;20.05;;;;;;;;;;6062338;23;20025;-67
2023/10/20 17:05:25;;;;;;;28.27;20.17;;;;;;;;;;6064318;23;20019;-68
2023/10/20 17:07:51;;;;;;;16.25;11.50;;;;;;;;;;6063309;23;20021;-68
2023/10/20 17:10:20;;;;;;;32.13;25.10;;;;;;;;;;6064070;23;20357;-69
2023/10/20 17:12:46;;;;;;;31.60;18.38;;;;;;;;;;6063563;23;20026;-69
2023/10/20 17:15:16;;;;;;;25.92;15.80;;;;;;;;;;6062456;23;20023;-68
2023/10/20 17:17:42;;;;;;;21.45;16.17;;;;;;;;;;6063809;23;20063;-69
2023/10/20 17:20:10;;;;;;;29.80;18.77;;;;;;;;;;6064168;23;20019;-68
2023/10/20 17:22:36;;;;;;;29.02;18.60;;;;;;;;;;6063543;23;20015;-68
2023/10/20 17:25:02;;;;;;;21.40;14.52;;;;;;;;;;6093361;23;20494;-67
2023/10/20 17:27:30;;;;;;;34.85;21.20;;;;;;;;;;6068190;23;20040;-70
2023/10/20 17:29:56;;;;;;;32.13;23.63;;;;;;;;;;6068154;23;20487;-70
2023/10/20 17:32:22;;;;;;;25.27;16.58;;;;;;;;;;6093191;23;20037;-69
2023/10/20 17:34:48;;;;;;;30.50;22.33;;;;;;;;;;6092298;23;20276;-69
2023/10/20 17:37:14;;;;;;;26.80;23.48;;;;;;;;;;6092531;23;20015;-70
2023/10/20 17:39:41;;;;;;;27.92;24.45;;;;;;;;;;6065977;23;20367;-70
2023/10/20 17:42:07;;;;;;;19.23;16.25;;;;;;;;;;6092391;23;20018;-69
2023/10/20 17:44:33;;;;;;;25.52;22.73;;;;;;;;;;6091378;23;20017;-69
2023/10/20 17:46:59;;;;;;;22.42;15.90;;;;;;;;;;6067186;23;20018;-69
2023/10/20 17:49:25;;;;;;;23.63;15.73;;;;;;;;;;6092931;23;20021;-69
2023/10/20 17:51:52;;;;;;;19.17;16.67;;;;;;;;;;6092223;23;20121;-70
2023/10/20 17:54:18;;;;;;;17.80;15.38;;;;;;;;;;6092613;23;20460;-70
2023/10/20 17:56:45;;;;;;;19.60;16.67;;;;;;;;;;6091863;23;20105;-69
2023/10/20 17:59:11;;;;;;;19.85;16.25;;;;;;;;;;6092668;23;20014;-66
2023/10/20 18:01:37;;;;;;;16.05;14.35;;;;;;;;;;6092017;23;20025;-68
2023/10/20 18:04:04;;;;;;;13.73;12.43;;;;;;;;;;6067017;23;20061;-66
2023/10/20 18:06:33;;;;;;;16.88;14.95;;;;;;;;;;6089741;23;20483;-66
2023/10/20 18:09:00;;;;;;;14.20;12.52;;;;;;;;;;6091266;23;20530;-68
2023/10/20 18:11:26;;;;;;;14.05;12.60;;;;;;;;;;6093986;23;20044;-67
2023/10/20 18:13:55;;;;;;;14.43;12.98;;;;;;;;;;6091985;23;20475;-66
2023/10/20 18:16:22;;;;;;;11.98;10.85;;;;;;;;;;6091601;23;20558;-66
2023/10/20 18:18:49;;;;;;;12.02;10.93;;;;;;;;;;6091581;23;20018;-66
2023/10/20 18:21:15;;;;;;;10.32;9.32;;;;;;;;;;6091654;23;20014;-67
2023/10/20 18:23:42;;;;;;;14.82;13.52;;;;;;;;;;6090733;23;20025;-68
2023/10/20 18:26:08;;;;;;;13.60;12.50;;;;;;;;;;6065727;23;20473;-69
2023/10/20 18:28:34;;;;;;;11.88;10.68;;;;;;;;;;6065383;23;20324;-67
2023/10/20 18:31:00;;;;;;;12.98;11.88;;;;;;;;;;6092049;23;20029;-67
2023/10/20 18:33:26;;;;;;;13.15;11.85;;;;;;;;;;6067736;23;20388;-69
2023/10/20 18:35:52;;;;;;;14.55;13.20;;;;;;;;;;6094018;23;20086;-68
2023/10/20 18:38:19;;;;;;;12.30;11.05;;;;;;;;;;6068032;23;20386;-67
2023/10/20 18:40:45;;;;;;;13.25;12.05;;;;;;;;;;6093498;23;20093;-68
2023/10/20 18:43:12;;;;;;;13.45;12.27;;;;;;;;;;6092971;23;20021;-67
2023/10/20 18:45:38;;;;;;;12.63;11.00;;;;;;;;;;6090249;23;20014;-67
2023/10/20 18:48:05;;;;;;;14.45;12.93;;;;;;;;;;6089864;23;20373;-68
2023/10/20 18:50:31;;;;;;;14.60;13.30;;;;;;;;;;6091268;23;20018;-68
2023/10/20 18:52:57;;;;;;;13.70;12.20;;;;;;;;;;6089744;23;20010;-68
2023/10/20 18:55:23;;;;;;;14.82;13.32;;;;;;;;;;6091397;23;20018;-67
2023/10/20 18:57:49;;;;;;;13.75;11.68;;;;;;;;;;6090651;23;20022;-67
2023/10/20 19:00:16;;;;;;;11.45;10.25;;;;;;;;;;6092061;23;20535;-68
2023/10/20 19:02:44;;;;;;;12.02;10.80;;;;;;;;;;6093819;23;20072;-68
2023/10/20 19:05:11;;;;;;;16.77;15.38;;;;;;;;;;6094114;23;20050;-67
2023/10/20 19:07:37;;;;;;;13.88;12.65;;;;;;;;;;6093822;23;20017;-68
2023/10/20 19:10:04;;;;;;;14.27;12.75;;;;;;;;;;6068779;23;20120;-68
2023/10/20 19:12:30;;;;;;;14.38;12.95;;;;;;;;;;6094209;23;20017;-68
2023/10/20 19:14:56;;;;;;;11.18;10.15;;;;;;;;;;6093748;23;20022;-68
2023/10/20 19:17:22;;;;;;;11.32;10.23;;;;;;;;;;6093549;23;20018;-68
2023/10/20 19:19:48;;;;;;;14.50;13.10;;;;;;;;;;6094936;23;20110;-68
2023/10/20 19:22:15;;;;;;;9.98;9.00;;;;;;;;;;6094779;23;20021;-67
2023/10/20 19:24:41;;;;;;;13.93;12.63;;;;;;;;;;6093773;23;20022;-68
2023/10/20 19:27:07;;;;;;;13.18;11.98;;;;;;;;;;6094453;23;20089;-69
2023/10/20 19:29:34;;;;;;;10.75;9.40;;;;;;;;;;6092248;23;20478;-67
2023/10/20 19:32:02;;;;;;;11.30;10.30;;;;;;;;;;6096065;23;20019;-68
2023/10/20 19:34:28;;;;;;;12.85;11.65;;;;;;;;;;6095667;23;20250;-67
2023/10/20 19:36:54;;;;;;;11.35;10.07;;;;;;;;;;6069045;23;20164;-67
2023/10/20 19:39:21;;;;;;;12.80;11.45;;;;;;;;;;6094981;23;20006;-67
2023/10/20 19:41:47;;;;;;;13.20;11.98;;;;;;;;;;6068002;23;20758;-68
2023/10/20 19:44:13;;;;;;;17.23;13.57;;;;;;;;;;6093277;23;20375;-67
2023/10/20 19:46:39;;;;;;;14.02;12.55;;;;;;;;;;6093033;23;20018;-67
2023/10/20 19:49:05;;;;;;;14.80;13.27;;;;;;;;;;6093022;23;20042;-67
2023/10/20 19:51:31;;;;;;;14.73;13.20;;;;;;;;;;6067012;23;20267;-67
2023/10/20 19:53:57;;;;;;;13.65;11.82;;;;;;;;;;6092907;23;20014;-67
2023/10/20 19:56:23;;;;;;;13.73;12.32;;;;;;;;;;6093282;23;20029;-67